Time;durP1;ratioP1;P1;durP2;ratioP2;P2;SDS_P1;SDS_P2;PMS_P1;PMS_P2;Temp;Humidity;BMP_temperature;BMP_pressure;BME280_temperature;BME280_humidity;BME280_pressure;Samples;Min_cycle;Max_cycle;Signal;HPM_P1;HPM_P2
2021/07/12 00:02:09;;;;;;;9.93;9.03;;;;;;;23.13;100.00;100549.34;1674253;84;21016;-46
2021/07/12 00:04:35;;;;;;;10.95;9.83;;;;;;;23.11;100.00;100546.30;1674821;83;21020;-44
2021/07/12 00:07:04;;;;;;;10.58;9.45;;;;;;;23.11;100.00;100540.02;1675655;84;21424;-44
2021/07/12 00:09:30;;;;;;;10.80;9.70;;;;;;;23.09;100.00;100548.84;1673246;83;20940;-43
2021/07/12 00:11:57;;;;;;;10.23;9.30;;;;;;;23.07;100.00;100555.80;1675276;83;21003;-49
2021/07/12 00:14:23;;;;;;;9.83;8.93;;;;;;;23.03;100.00;100550.87;1672170;83;20960;-46
2021/07/12 00:16:50;;;;;;;12.35;9.13;;;;;;;23.00;100.00;100549.85;1678288;83;20972;-46
2021/07/12 00:19:18;;;;;;;11.25;9.50;;;;;;;22.99;100.00;100554.96;1675354;83;20999;-48
2021/07/12 00:21:46;;;;;;;11.00;9.65;;;;;;;23.00;100.00;100548.49;1679666;84;20959;-47
2021/07/12 00:24:13;;;;;;;9.43;8.68;;;;;;;22.99;100.00;100546.80;1675956;83;21869;-44
2021/07/12 00:26:39;;;;;;;10.18;9.33;;;;;;;22.97;100.00;100546.09;1676910;83;21004;-43
2021/07/12 00:29:06;;;;;;;10.98;9.88;;;;;;;22.97;100.00;100556.96;1673665;83;20936;-48
2021/07/12 00:31:34;;;;;;;11.10;10.20;;;;;;;22.95;100.00;100564.42;1674305;83;20999;-46
2021/07/12 00:34:02;;;;;;;9.75;8.83;;;;;;;22.93;100.00;100552.38;1704341;82;21023;-46
2021/07/12 00:36:30;;;;;;;11.33;10.28;;;;;;;22.90;100.00;100546.74;1700077;82;21008;-47
2021/07/12 00:38:57;;;;;;;10.60;9.68;;;;;;;22.83;100.00;100555.25;1702165;83;21028;-44
2021/07/12 00:41:25;;;;;;;10.48;9.48;;;;;;;22.80;100.00;100554.72;1701595;83;21594;-44
2021/07/12 00:43:52;;;;;;;10.28;9.35;;;;;;;22.75;100.00;100549.78;1701893;83;20997;-44
2021/07/12 00:46:19;;;;;;;10.05;9.15;;;;;;;22.70;100.00;100548.08;1701211;83;20972;-54
2021/07/12 00:48:46;;;;;;;10.65;9.65;;;;;;;22.67;100.00;100547.90;1703993;82;21326;-43
2021/07/12 00:51:14;;;;;;;10.00;9.10;;;;;;;22.66;100.00;100543.50;1696024;83;20940;-46
2021/07/12 00:53:40;;;;;;;9.43;8.58;;;;;;;22.66;100.00;100542.66;1699396;83;21436;-44
2021/07/12 00:56:08;;;;;;;8.95;8.10;;;;;;;22.65;100.00;100540.45;1684412;83;21003;-45
2021/07/12 00:58:35;;;;;;;10.90;9.48;;;;;;;22.65;100.00;100538.22;1682757;83;21000;-45
2021/07/12 01:01:05;;;;;;;10.70;9.70;;;;;;;22.63;100.00;100535.69;1672285;83;21391;-46
2021/07/12 01:03:32;;;;;;;10.20;9.35;;;;;;;22.60;100.00;100527.88;1683815;83;20964;-46
2021/07/12 01:05:58;;;;;;;10.32;8.95;;;;;;;22.60;100.00;100529.23;1702204;83;20945;-44
2021/07/12 01:08:25;;;;;;;10.72;9.50;;;;;;;22.62;100.00;100529.89;1671572;84;21028;-47
2021/07/12 01:11:20;;;;;;;10.25;9.35;;;;;;;22.61;100.00;100530.92;1669968;84;21044;-44
2021/07/12 01:14:03;;;;;;;10.45;9.55;;;;;;;22.61;100.00;100532.80;1650167;85;21012;-44
2021/07/12 01:16:56;;;;;;;9.05;8.15;;;;;;;22.60;100.00;100534.67;1643414;85;21028;-48
2021/07/12 01:20:07;;;;;;;9.85;8.85;;;;;;;22.60;100.00;100527.00;1645234;86;21017;-56
2021/07/12 01:22:59;;;;;;;10.40;9.40;;;;;;;22.60;100.00;100533.79;1569385;89;20993;-44
2021/07/12 01:25:56;;;;;;;9.55;8.38;;;;;;;22.58;100.00;100529.91;1597117;88;21035;-45
2021/07/12 01:28:53;;;;;;;11.05;9.33;;;;;;;22.56;100.00;100531.92;1624357;86;20985;-46
2021/07/12 01:32:01;;;;;;;10.53;9.53;;;;;;;22.53;100.00;100529.55;1625086;86;21526;-45
2021/07/12 01:34:55;;;;;;;9.25;8.38;;;;;;;22.52;100.00;100532.42;1628711;86;21019;-46
2021/07/12 01:37:36;;;;;;;9.93;9.05;;;;;;;22.48;100.00;100540.06;1593810;88;21036;-41
2021/07/12 01:40:09;;;;;;;9.05;8.35;;;;;;;22.48;100.00;100541.42;1595902;88;21015;-42
2021/07/12 01:42:49;;;;;;;10.43;9.53;;;;;;;22.45;100.00;100539.02;1596083;88;20968;-43
2021/07/12 01:45:16;;;;;;;9.67;8.67;;;;;;;22.43;100.00;100546.50;1591734;88;20976;-41
2021/07/12 01:48:09;;;;;;;9.75;8.75;;;;;;;22.41;100.00;100545.30;1626065;86;20991;-42
2021/07/12 01:50:54;;;;;;;9.53;8.70;;;;;;;22.42;100.00;100554.29;1627318;86;21975;-42
2021/07/12 01:53:49;;;;;;;10.18;9.25;;;;;;;22.40;100.00;100553.11;1625590;86;21071;-40
2021/07/12 01:56:42;;;;;;;9.70;8.90;;;;;;;22.42;100.00;100554.29;1632860;83;21433;-41
2021/07/12 01:59:33;;;;;;;9.63;8.45;;;;;;;22.40;100.00;100550.88;1695960;83;21617;-41
2021/07/12 02:02:02;;;;;;;10.65;9.65;;;;;;;22.38;100.00;100542.08;1653773;84;21045;-41
2021/07/12 02:04:29;;;;;;;9.15;8.25;;;;;;;22.37;100.00;100548.50;1671958;84;21013;-40
2021/07/12 02:06:57;;;;;;;11.18;9.93;;;;;;;22.37;100.00;100544.42;1645032;85;20988;-40
2021/07/12 02:09:24;;;;;;;10.15;9.25;;;;;;;22.35;100.00;100546.45;1673054;84;20957;-43
2021/07/12 02:11:52;;;;;;;9.75;8.85;;;;;;;22.34;100.00;100546.97;1701064;83;20972;-41
2021/07/12 02:14:20;;;;;;;10.05;8.63;;;;;;;22.34;100.00;100542.89;1701060;83;21506;-45
2021/07/12 02:16:52;;;;;;;9.03;8.15;;;;;;;22.35;100.00;100543.25;1682753;83;20948;-41
2021/07/12 02:19:18;;;;;;;9.23;8.33;;;;;;;22.36;100.00;100535.95;1702276;82;21400;-42
2021/07/12 02:21:57;;;;;;;10.10;9.10;;;;;;;22.39;100.00;100526.95;1702411;82;21399;-41
2021/07/12 02:24:26;;;;;;;9.50;8.25;;;;;;;22.40;100.00;100528.67;1699035;83;21000;-39
2021/07/12 02:26:54;;;;;;;8.75;7.95;;;;;;;22.43;100.00;100541.91;1682252;82;20914;-39
2021/07/12 02:29:21;;;;;;;9.25;8.25;;;;;;;22.46;100.00;100552.95;1667478;84;20973;-43
2021/07/12 02:31:49;;;;;;;10.13;9.28;;;;;;;22.50;100.00;100561.61;1702323;82;21449;-41
2021/07/12 02:34:17;;;;;;;9.00;8.08;;;;;;;22.52;100.00;100559.59;1688189;83;20980;-43
2021/07/12 02:36:45;;;;;;;10.93;9.95;;;;;;;22.52;100.00;100555.52;1703808;83;21483;-44
2021/07/12 02:39:14;;;;;;;10.48;9.58;;;;;;;22.53;100.00;100553.13;1700084;82;20984;-41
2021/07/12 02:41:41;;;;;;;10.23;9.33;;;;;;;22.53;100.00;100547.20;1704330;82;20965;-42
2021/07/12 02:44:10;;;;;;;9.95;9.05;;;;;;;22.54;100.00;100541.27;1633453;84;21032;-42
2021/07/12 02:46:38;;;;;;;11.93;8.85;;;;;;;22.56;100.00;100546.03;1651237;86;21048;-44
2021/07/12 02:49:06;;;;;;;12.28;9.50;;;;;;;22.57;100.00;100555.34;1650474;85;21007;-40
2021/07/12 02:51:40;;;;;;;10.38;9.35;;;;;;;22.60;100.00;100552.81;1646828;85;20959;-40
2021/07/12 02:54:07;;;;;;;8.95;8.10;;;;;;;22.64;100.00;100546.03;1653111;84;21028;-42
2021/07/12 02:56:34;;;;;;;10.65;8.88;;;;;;;22.66;100.00;100543.50;1665607;82;21000;-41
2021/07/12 02:59:02;;;;;;;9.30;8.38;;;;;;;22.70;100.00;100549.44;1688221;82;21003;-44
2021/07/12 03:01:29;;;;;;;10.53;9.23;;;;;;;22.73;100.00;100538.73;1700234;83;21594;-44
2021/07/12 03:03:56;;;;;;;10.60;8.68;;;;;;;22.73;100.00;100539.61;1704382;82;21355;-43
2021/07/12 03:06:27;;;;;;;10.35;8.45;;;;;;;22.75;100.00;100543.50;1705350;82;20987;-44
2021/07/12 03:09:07;;;;;;;10.03;9.10;;;;;;;22.78;100.00;100538.60;1705436;82;21595;-44
2021/07/12 03:11:50;;;;;;;8.95;8.05;;;;;;;22.85;100.00;100536.05;1704392;82;20932;-44
2021/07/12 03:14:37;;;;;;;9.08;8.18;;;;;;;22.89;100.00;100540.98;1706957;83;21314;-41
2021/07/12 03:17:05;;;;;;;8.80;7.75;;;;;;;22.95;100.00;100538.60;1705337;82;20964;-44
2021/07/12 03:19:35;;;;;;;9.40;8.40;;;;;;;23.01;100.00;100529.30;1703559;83;21000;-43
2021/07/12 03:22:04;;;;;;;8.73;7.92;;;;;;;23.05;100.00;100523.00;1674048;84;21008;-43
2021/07/12 03:24:34;;;;;;;9.35;8.45;;;;;;;23.07;100.00;100519.09;1704062;82;20991;-42
2021/07/12 03:27:03;;;;;;;9.65;8.75;;;;;;;23.13;100.00;100518.92;1682835;82;20932;-44
2021/07/12 03:29:31;;;;;;;9.23;8.43;;;;;;;23.18;100.00;100517.05;1706546;82;21012;-43
2021/07/12 03:31:59;;;;;;;8.15;7.35;;;;;;;23.19;100.00;100522.85;1704669;82;20992;-43
2021/07/12 03:34:27;;;;;;;9.08;7.75;;;;;;;23.19;100.00;100529.13;1707763;82;21032;-43
2021/07/12 03:36:54;;;;;;;8.45;7.67;;;;;;;23.19;100.00;100529.65;1711129;82;21456;-47
2021/07/12 03:39:22;;;;;;;7.97;7.28;;;;;;;23.19;100.00;100527.77;1707017;82;21552;-46
2021/07/12 03:41:50;;;;;;;7.87;7.12;;;;;;;23.18;100.00;100520.61;1698002;83;20996;-47
2021/07/12 03:44:18;;;;;;;8.73;7.92;;;;;;;23.21;100.00;100523.02;1700530;82;20972;-43
2021/07/12 03:46:46;;;;;;;8.48;7.70;;;;;;;23.24;100.00;100525.91;1704883;83;21016;-47
2021/07/12 03:49:18;;;;;;;7.70;7.00;;;;;;;23.29;100.00;100526.24;1707117;82;21495;-51
2021/07/12 03:51:47;;;;;;;7.75;6.97;;;;;;;23.31;100.00;100525.05;1657224;84;21012;-46
2021/07/12 03:54:15;;;;;;;9.55;8.35;;;;;;;23.34;100.00;100522.50;1707387;82;21000;-49
2021/07/12 03:56:41;;;;;;;8.48;7.20;;;;;;;23.38;100.00;100524.34;1701543;82;20976;-43
2021/07/12 03:59:08;;;;;;;11.45;8.43;;;;;;;23.40;100.00;100534.03;1708243;82;20987;-43
2021/07/12 04:01:34;;;;;;;8.38;7.58;;;;;;;23.43;100.00;100527.41;1707237;83;21511;-44
2021/07/12 04:04:01;;;;;;;8.83;7.92;;;;;;;23.42;100.00;100523.00;1704850;82;20980;-45
2021/07/12 04:06:30;;;;;;;8.55;7.75;;;;;;;23.40;100.00;100520.44;1651850;85;21491;-43
2021/07/12 04:08:57;;;;;;;8.48;7.65;;;;;;;23.39;100.00;100528.27;1710805;82;20983;-42
2021/07/12 04:11:30;;;;;;;7.90;7.20;;;;;;;23.40;100.00;100528.59;1707497;83;20933;-46
2021/07/12 04:13:52;;;;;;;8.68;7.87;;;;;;;23.44;100.00;100527.76;1707826;82;20976;-43
2021/07/12 04:16:19;;;;;;;7.58;6.87;;;;;;;23.45;100.00;100529.44;1708904;82;20969;-44
2021/07/12 04:18:46;;;;;;;10.08;7.35;;;;;;;23.48;100.00;100525.02;1708130;82;20956;-42
2021/07/12 04:21:14;;;;;;;8.63;7.80;;;;;;;23.50;100.00;100522.45;1711897;83;20992;-49
2021/07/12 04:23:40;;;;;;;9.15;7.70;;;;;;;23.54;100.00;100520.26;1674250;84;20976;-46
2021/07/12 04:26:07;;;;;;;8.70;7.90;;;;;;;23.53;100.00;100522.10;1703801;82;21035;-46
2021/07/12 04:28:33;;;;;;;8.38;7.65;;;;;;;23.54;100.00;100522.46;1706424;82;21020;-45
2021/07/12 04:31:00;;;;;;;10.48;7.58;;;;;;;23.54;100.00;100521.10;1705093;82;21456;-45
2021/07/12 04:33:27;;;;;;;8.05;7.35;;;;;;;23.54;100.00;100520.26;1705394;82;21452;-46
2021/07/12 04:35:54;;;;;;;7.83;7.12;;;;;;;23.53;100.00;100519.38;1706803;82;20972;-47
2021/07/12 04:38:21;;;;;;;8.18;7.37;;;;;;;23.54;100.00;100517.53;1708444;83;20964;-46
2021/07/12 04:40:47;;;;;;;9.55;8.58;;;;;;;23.53;100.00;100515.30;1706816;82;21496;-49
2021/07/12 04:43:14;;;;;;;8.35;6.87;;;;;;;23.49;100.00;100513.12;1705934;82;20983;-43
2021/07/12 04:45:42;;;;;;;10.25;8.10;;;;;;;23.46;100.00;100510.72;1709184;82;20977;-49
2021/07/12 04:48:09;;;;;;;7.80;7.10;;;;;;;23.45;100.00;100511.76;1707905;82;20979;-42
2021/07/12 04:50:36;;;;;;;8.98;6.75;;;;;;;23.44;100.00;100504.63;1703851;83;21009;-51
2021/07/12 04:53:04;;;;;;;7.15;6.45;;;;;;;23.45;100.00;100504.44;1704941;82;21020;-43
2021/07/12 04:55:31;;;;;;;8.48;7.75;;;;;;;23.46;100.00;100508.88;1648921;85;21039;-46
2021/07/12 04:57:58;;;;;;;8.25;7.50;;;;;;;23.47;100.00;100503.77;1710503;82;21507;-46
2021/07/12 05:00:25;;;;;;;10.55;8.83;;;;;;;23.48;100.00;100510.05;1704273;82;21036;-42
2021/07/12 05:02:52;;;;;;;11.57;7.15;;;;;;;23.48;100.00;100496.45;1706363;82;21588;-41
2021/07/12 05:05:19;;;;;;;8.10;7.33;;;;;;;23.49;100.00;100499.52;1709088;82;20985;-49
2021/07/12 05:07:46;;;;;;;10.13;8.05;;;;;;;23.46;100.00;100507.52;1709516;82;20963;-49
2021/07/12 05:10:13;;;;;;;9.25;7.37;;;;;;;23.44;100.00;100502.76;1705538;82;21490;-43
2021/07/12 05:12:40;;;;;;;9.08;6.75;;;;;;;23.44;100.00;100509.56;1709060;82;20968;-43
2021/07/12 05:15:08;;;;;;;9.80;8.15;;;;;;;23.45;100.00;100506.32;1709533;83;21007;-48
2021/07/12 05:17:37;;;;;;;9.88;7.25;;;;;;;23.45;100.00;100503.59;1702890;82;21039;-45
2021/07/12 05:20:06;;;;;;;7.45;6.85;;;;;;;23.46;100.00;100505.28;1702383;82;20975;-46
2021/07/12 05:22:33;;;;;;;9.20;7.85;;;;;;;23.48;100.00;100503.25;1707566;82;21494;-44
2021/07/12 05:25:02;;;;;;;7.75;7.05;;;;;;;23.50;100.00;100510.21;1701670;82;20948;-47
2021/07/12 05:27:29;;;;;;;6.92;6.22;;;;;;;23.57;100.00;100511.73;1709293;82;20965;-45
2021/07/12 05:29:55;;;;;;;7.58;6.97;;;;;;;23.65;100.00;100521.75;1707385;82;20971;-46
2021/07/12 05:32:21;;;;;;;8.23;7.35;;;;;;;23.73;100.00;100536.73;1707598;82;21529;-46
2021/07/12 05:34:49;;;;;;;7.80;7.20;;;;;;;23.81;100.00;100541.30;1704868;82;20937;-48
2021/07/12 05:37:16;;;;;;;8.00;7.20;;;;;;;23.87;100.00;100537.38;1703237;83;20973;-44
2021/07/12 05:39:42;;;;;;;7.62;6.92;;;;;;;23.92;100.00;100536.34;1702436;82;20969;-53
2021/07/12 05:42:10;;;;;;;8.48;7.05;;;;;;;23.97;100.00;100537.19;1706253;82;20941;-49
2021/07/12 05:44:36;;;;;;;7.37;6.62;;;;;;;23.98;100.00;100538.34;1705250;82;20984;-46
2021/07/12 05:47:04;;;;;;;8.23;7.42;;;;;;;24.03;100.00;100530.17;1706690;82;20955;-44
2021/07/12 05:49:31;;;;;;;9.18;7.20;;;;;;;24.06;100.00;100538.83;1707027;82;20980;-50
2021/07/12 05:51:57;;;;;;;9.08;8.28;;;;;;;24.11;100.00;100543.23;1708025;82;21578;-49
2021/07/12 05:54:24;;;;;;;8.70;8.00;;;;;;;24.16;100.00;100546.80;1703138;82;20968;-46
2021/07/12 05:56:50;;;;;;;8.35;7.55;;;;;;;24.23;100.00;100555.12;1706294;82;21014;-50
2021/07/12 05:59:17;;;;;;;8.68;7.80;;;;;;;24.29;100.00;100563.93;1703662;82;21985;-47
2021/07/12 06:01:44;;;;;;;10.43;8.40;;;;;;;24.35;100.00;100560.52;1704635;82;21040;-42
2021/07/12 06:04:10;;;;;;;9.83;7.28;;;;;;;24.41;100.00;100563.36;1703295;82;21016;-41
2021/07/12 06:06:37;;;;;;;7.95;7.15;;;;;;;24.47;100.00;100551.44;1702039;82;20964;-45
2021/07/12 06:09:04;;;;;;;8.38;6.80;;;;;;;24.54;100.00;100550.55;1700638;82;21014;-44
2021/07/12 06:11:30;;;;;;;7.40;6.80;;;;;;;24.59;100.00;100550.89;1703019;82;20991;-43
2021/07/12 06:13:57;;;;;;;7.95;7.25;;;;;;;24.65;100.00;100558.02;1707688;82;20925;-43
2021/07/12 06:16:25;;;;;;;8.33;7.47;;;;;;;24.69;100.00;100555.24;1702923;83;21388;-42
2021/07/12 06:18:58;;;;;;;7.75;7.05;;;;;;;24.71;100.00;100558.13;1647469;85;20992;-45
2021/07/12 06:21:39;;;;;;;8.05;7.35;;;;;;;24.74;100.00;100561.00;1674719;84;21458;-45
2021/07/12 06:24:06;;;;;;;8.93;7.30;;;;;;;24.74;100.00;100564.57;1673650;84;21460;-42
2021/07/12 06:26:32;;;;;;;8.60;7.80;;;;;;;24.76;100.00;100564.41;1703845;82;20975;-41
2021/07/12 06:28:59;;;;;;;9.63;8.70;;;;;;;24.76;100.00;100565.77;1704160;82;21037;-41
2021/07/12 06:31:27;;;;;;;10.58;9.58;;;;;;;24.78;100.00;100571.38;1703596;82;20941;-41
2021/07/12 06:34:05;;;;;;;8.60;7.87;;;;;;;24.80;100.00;100578.02;1700915;83;21435;-45
2021/07/12 06:36:37;;;;;;;7.65;6.95;;;;;;;24.80;100.00;100580.22;1647041;84;21170;-44
2021/07/12 06:39:04;;;;;;;7.62;6.92;;;;;;;24.82;100.00;100584.98;1648643;85;21016;-41
2021/07/12 06:41:31;;;;;;;7.83;7.20;;;;;;;24.82;100.00;100589.56;1651763;85;21415;-43
2021/07/12 06:43:59;;;;;;;8.30;7.47;;;;;;;24.83;100.00;100585.31;1650885;85;21503;-39
2021/07/12 06:46:29;;;;;;;8.85;8.00;;;;;;;24.86;100.00;100588.71;1650123;85;21047;-42
2021/07/12 06:48:56;;;;;;;9.38;8.58;;;;;;;24.83;100.00;100578.49;1650669;85;20996;-42
2021/07/12 06:51:23;;;;;;;7.78;6.85;;;;;;;24.84;100.00;100577.45;1650380;85;21924;-43
2021/07/12 06:53:49;;;;;;;8.78;7.65;;;;;;;24.82;100.00;100574.08;1649793;85;21607;-41
2021/07/12 06:56:16;;;;;;;8.30;7.60;;;;;;;24.83;100.00;100581.22;1651887;85;21499;-43
2021/07/12 06:58:43;;;;;;;7.83;7.15;;;;;;;24.83;100.00;100577.66;1649683;85;21000;-42
2021/07/12 07:01:10;;;;;;;10.40;8.85;;;;;;;24.84;100.00;100577.45;1645587;85;21012;-42
2021/07/12 07:03:36;;;;;;;8.35;7.55;;;;;;;24.87;100.00;100574.03;1646746;85;21574;-42
2021/07/12 07:06:05;;;;;;;7.62;6.90;;;;;;;24.87;100.00;100578.12;1646887;85;20987;-44
2021/07/12 07:08:35;;;;;;;8.23;7.42;;;;;;;24.87;100.00;100574.88;1646189;85;20957;-45
2021/07/12 07:11:03;;;;;;;8.53;7.83;;;;;;;24.87;100.00;100562.61;1651353;85;20933;-41
2021/07/12 07:13:30;;;;;;;11.97;10.88;;;;;;;24.88;100.00;100543.03;1667398;83;20980;-41
2021/07/12 07:15:58;;;;;;;8.83;8.05;;;;;;;24.87;100.00;100550.34;1703269;82;21645;-43
2021/07/12 07:18:26;;;;;;;9.10;8.20;;;;;;;24.88;100.00;100545.23;1703828;82;20937;-42
2021/07/12 07:20:53;;;;;;;8.13;7.33;;;;;;;24.88;100.00;100547.97;1681111;83;21616;-41
2021/07/12 07:23:20;;;;;;;8.73;7.80;;;;;;;24.89;100.00;100552.37;1664263;84;21591;-46
2021/07/12 07:25:46;;;;;;;7.75;7.03;;;;;;;24.91;100.00;100542.66;1644499;86;21024;-41
2021/07/12 07:28:13;;;;;;;7.65;7.05;;;;;;;24.91;100.00;100535.33;1650517;85;21044;-42
2021/07/12 07:30:40;;;;;;;8.40;7.70;;;;;;;24.94;100.00;100536.31;1641522;86;20973;-43
2021/07/12 07:33:06;;;;;;;8.50;7.65;;;;;;;24.94;100.00;100540.41;1639152;85;21012;-42
2021/07/12 07:35:33;;;;;;;7.45;6.80;;;;;;;24.98;100.00;100545.00;1702135;82;20960;-43
2021/07/12 07:37:59;;;;;;;8.85;7.65;;;;;;;24.99;100.00;100546.69;1705561;82;21459;-45
2021/07/12 07:40:26;;;;;;;8.65;7.45;;;;;;;25.02;100.00;100558.09;1674808;84;21028;-41
2021/07/12 07:42:53;;;;;;;8.38;7.67;;;;;;;25.04;100.00;100560.62;1666954;84;20953;-51
2021/07/12 07:45:20;;;;;;;8.55;7.78;;;;;;;25.05;100.00;100565.91;1707763;82;21012;-45
2021/07/12 07:47:46;;;;;;;8.25;7.53;;;;;;;25.09;100.00;100573.72;1704561;82;20992;-51
2021/07/12 07:50:14;;;;;;;7.42;6.78;;;;;;;25.10;100.00;100573.55;1706412;82;20956;-43
2021/07/12 07:52:41;;;;;;;8.95;8.20;;;;;;;25.14;100.00;100572.66;1704291;82;20991;-44
2021/07/12 07:55:09;;;;;;;8.00;7.30;;;;;;;25.17;100.00;100564.97;1708988;82;20937;-42
2021/07/12 07:57:40;;;;;;;9.93;8.28;;;;;;;25.21;100.00;100566.84;1708174;82;21019;-42
2021/07/12 08:00:13;;;;;;;8.05;7.35;;;;;;;25.25;100.00;100555.91;1706142;82;20969;-40
2021/07/12 08:02:40;;;;;;;9.15;8.25;;;;;;;25.29;100.00;100552.28;1705291;82;21111;-41
2021/07/12 08:05:07;;;;;;;9.45;7.90;;;;;;;25.32;100.00;100558.20;1708018;82;20972;-43
2021/07/12 08:07:34;;;;;;;8.40;7.70;;;;;;;25.36;100.00;100574.55;1706813;82;20972;-43
2021/07/12 08:10:03;;;;;;;8.28;7.47;;;;;;;25.40;100.00;100575.02;1708143;82;21487;-46
2021/07/12 08:12:30;;;;;;;9.10;7.72;;;;;;;25.43;100.00;100571.94;1707540;82;20976;-43
2021/07/12 08:14:58;;;;;;;8.48;7.67;;;;;;;25.44;100.00;100567.64;1669334;84;21019;-43
2021/07/12 08:17:26;;;;;;;8.10;7.40;;;;;;;25.48;100.00;100563.52;1702893;82;21006;-43
2021/07/12 08:19:53;;;;;;;8.03;7.33;;;;;;;25.51;100.00;100569.13;1707640;82;21039;-45
2021/07/12 08:22:33;;;;;;;10.98;7.72;;;;;;;25.54;100.00;100567.39;1710616;82;21091;-44
2021/07/12 08:25:02;;;;;;;8.18;7.33;;;;;;;25.58;100.00;100562.42;1705098;83;20985;-43
2021/07/12 08:27:30;;;;;;;7.80;7.10;;;;;;;25.61;100.00;100550.60;1709528;82;21447;-43
2021/07/12 08:29:59;;;;;;;8.23;7.35;;;;;;;25.63;100.00;100543.08;1706689;82;20945;-43
2021/07/12 08:32:26;;;;;;;7.70;6.97;;;;;;;25.66;100.00;100547.32;1706658;82;21816;-39
2021/07/12 08:34:53;;;;;;;8.35;7.55;;;;;;;25.67;100.00;100537.56;1707633;83;21001;-41
2021/07/12 08:37:19;;;;;;;8.38;7.60;;;;;;;25.71;100.00;100536.69;1703049;82;20980;-41
2021/07/12 08:39:47;;;;;;;8.68;7.83;;;;;;;25.75;100.00;100531.69;1705304;83;20961;-42
2021/07/12 08:42:13;;;;;;;7.12;6.50;;;;;;;25.79;100.00;100539.84;1704898;82;21492;-41
2021/07/12 08:44:41;;;;;;;8.40;7.37;;;;;;;25.82;100.00;100534.84;1707696;82;20984;-43
2021/07/12 08:47:08;;;;;;;7.87;7.17;;;;;;;25.85;100.00;100528.19;1704460;82;21008;-47
2021/07/12 08:49:35;;;;;;;8.50;7.15;;;;;;;25.87;100.00;100527.48;1701399;82;21004;-43
2021/07/12 08:52:03;;;;;;;8.48;7.78;;;;;;;25.88;100.00;100523.74;1706926;82;21000;-45
2021/07/12 08:54:30;;;;;;;8.03;7.33;;;;;;;25.92;100.00;100525.56;1708445;83;21536;-44
2021/07/12 08:56:57;;;;;;;8.28;7.00;;;;;;;25.95;100.00;100526.02;1706841;82;21039;-45
2021/07/12 08:59:32;;;;;;;7.85;7.05;;;;;;;25.98;100.00;100520.20;1710683;83;20944;-43
2021/07/12 09:02:17;;;;;;;7.40;6.67;;;;;;;26.02;100.00;100517.41;1706193;82;21026;-45
2021/07/12 09:04:47;;;;;;;7.33;6.72;;;;;;;26.06;100.00;100524.72;1710622;82;21500;-42
2021/07/12 09:07:17;;;;;;;8.50;7.20;;;;;;;26.09;100.00;100528.42;1711972;82;21008;-44
2021/07/12 09:10:06;;;;;;;7.47;6.85;;;;;;;26.10;100.00;100533.69;1676322;83;21654;-44
2021/07/12 09:12:51;;;;;;;7.17;6.62;;;;;;;26.14;100.00;100531.96;1677973;83;21040;-49
2021/07/12 09:15:21;;;;;;;7.08;6.40;;;;;;;26.18;100.00;100542.29;1707318;83;21642;-45
2021/07/12 09:17:54;;;;;;;7.15;6.55;;;;;;;26.23;100.00;100542.60;1710213;82;20962;-45
2021/07/12 09:20:29;;;;;;;9.95;8.03;;;;;;;26.28;100.00;100551.56;1705841;83;21024;-44
2021/07/12 09:22:56;;;;;;;8.20;6.03;;;;;;;26.30;100.00;100553.06;1707305;82;21502;-46
2021/07/12 09:25:25;;;;;;;7.12;6.42;;;;;;;26.34;100.00;100554.92;1679489;83;21444;-41
2021/07/12 09:27:55;;;;;;;6.97;6.37;;;;;;;26.38;100.00;100561.67;1686088;82;20992;-42
2021/07/12 09:30:22;;;;;;;8.83;6.87;;;;;;;26.41;100.00;100574.11;1708943;82;20979;-42
2021/07/12 09:32:52;;;;;;;6.87;6.28;;;;;;;26.44;100.00;100573.23;1708642;82;20976;-42
2021/07/12 09:35:20;;;;;;;7.12;6.53;;;;;;;26.46;100.00;100574.39;1688975;83;20977;-42
2021/07/12 09:37:56;;;;;;;7.00;6.40;;;;;;;26.48;100.00;100566.84;1708438;82;20944;-46
2021/07/12 09:40:23;;;;;;;6.70;6.12;;;;;;;26.50;100.00;100559.31;1703162;83;21877;-52
2021/07/12 09:42:51;;;;;;;7.67;6.97;;;;;;;26.52;100.00;100559.97;1707281;82;20992;-44
2021/07/12 09:45:22;;;;;;;7.25;6.65;;;;;;;26.54;100.00;100562.03;1703260;83;20995;-43
2021/07/12 09:47:49;;;;;;;8.23;7.42;;;;;;;26.56;100.00;100566.79;1707588;83;20944;-43
2021/07/12 09:50:19;;;;;;;8.58;7.42;;;;;;;26.59;100.00;100566.92;1705239;83;20987;-41
2021/07/12 09:52:51;;;;;;;7.97;6.87;;;;;;;26.60;100.00;100569.98;1702607;82;21023;-42
2021/07/12 09:55:30;;;;;;;7.72;6.87;;;;;;;26.62;100.00;100577.47;1704358;83;21983;-42
2021/07/12 09:58:14;;;;;;;7.10;6.50;;;;;;;26.63;100.00;100581.88;1702441;82;20972;-41
2021/07/12 10:00:48;;;;;;;8.18;6.78;;;;;;;26.64;100.00;100579.50;1701274;82;21331;-42
2021/07/12 10:03:20;;;;;;;8.10;7.30;;;;;;;26.66;100.00;100578.76;1702536;82;21012;-49
2021/07/12 10:05:47;;;;;;;9.23;7.45;;;;;;;26.65;100.00;100582.02;1708282;83;20952;-42
2021/07/12 10:08:14;;;;;;;8.20;7.40;;;;;;;26.66;100.00;100586.47;1705374;83;20972;-46
2021/07/12 10:10:41;;;;;;;8.33;7.53;;;;;;;26.66;100.00;100586.47;1700680;83;21004;-47
2021/07/12 10:13:08;;;;;;;8.33;7.53;;;;;;;26.67;100.00;100586.78;1708928;82;20988;-45
2021/07/12 10:15:35;;;;;;;8.05;7.35;;;;;;;26.66;100.00;100576.03;1701443;82;20965;-43
2021/07/12 10:18:04;;;;;;;8.48;7.67;;;;;;;26.66;100.00;100581.00;1702991;83;21003;-43
2021/07/12 10:20:33;;;;;;;7.58;6.87;;;;;;;26.64;100.00;100574.87;1672549;84;20984;-48
2021/07/12 10:23:00;;;;;;;7.60;7.00;;;;;;;26.64;100.00;100574.87;1707952;82;20956;-47
2021/07/12 10:25:28;;;;;;;10.53;7.10;;;;;;;26.65;100.00;100574.34;1699381;83;21043;-51
2021/07/12 10:27:59;;;;;;;8.20;7.40;;;;;;;26.65;100.00;100577.92;1703612;82;20984;-45
2021/07/12 10:30:30;;;;;;;7.80;7.10;;;;;;;26.64;100.00;100569.41;1706847;83;20941;-46
2021/07/12 10:33:02;;;;;;;9.15;7.80;;;;;;;26.65;100.00;100567.51;1697118;83;21531;-43
2021/07/12 10:35:46;;;;;;;8.40;7.47;;;;;;;26.64;100.00;100557.62;1704218;83;21023;-50
2021/07/12 10:38:18;;;;;;;7.22;6.62;;;;;;;26.62;100.00;100554.23;1702270;82;21004;-50
2021/07/12 10:40:56;;;;;;;7.70;7.08;;;;;;;26.60;100.00;100556.30;1668387;83;20972;-50
2021/07/12 10:43:55;;;;;;;7.75;6.97;;;;;;;26.59;100.00;100550.52;1707034;83;21397;-55
2021/07/12 10:46:31;;;;;;;10.68;8.45;;;;;;;26.59;100.00;100554.09;1711051;83;21048;-52
2021/07/12 10:49:06;;;;;;;7.97;7.05;;;;;;;26.59;100.00;100541.80;1708065;83;20972;-51
2021/07/12 10:51:44;;;;;;;;;;;;;;;26.60;100.00;100528.97;1702177;82;21607;-55
2021/07/12 10:54:15;;;;;;;7.37;6.78;;;;;;;26.60;100.00;100520.77;1699837;82;20143;-46
2021/07/12 10:57:01;;;;;;;7.78;7.08;;;;;;;26.59;100.00;100513.62;1701038;82;21027;-44
2021/07/12 10:59:38;;;;;;;7.78;7.08;;;;;;;26.56;100.00;100509.39;1701286;83;21067;-49
2021/07/12 11:02:22;;;;;;;9.63;8.63;;;;;;;26.57;100.00;100517.06;1700167;82;21115;-43
2021/07/12 11:05:08;;;;;;;8.23;7.53;;;;;;;26.58;100.00;100522.31;1696267;82;21015;-44
2021/07/12 11:07:47;;;;;;;8.93;7.70;;;;;;;26.60;100.00;100520.77;1677198;84;21555;-45
2021/07/12 11:10:31;;;;;;;7.78;6.97;;;;;;;26.60;100.00;100513.41;1703094;83;20968;-40
2021/07/12 11:13:03;;;;;;;8.05;7.35;;;;;;;26.61;100.00;100515.61;1704636;82;20972;-41
2021/07/12 11:15:33;;;;;;;8.83;8.03;;;;;;;26.62;100.00;100518.16;1673018;84;21503;-41
2021/07/12 11:18:10;;;;;;;7.72;7.05;;;;;;;26.63;100.00;100519.00;1670912;84;21004;-44
2021/07/12 11:20:48;;;;;;;8.53;7.67;;;;;;;26.64;100.00;100517.98;1704045;82;20980;-43
2021/07/12 11:23:39;;;;;;;8.80;8.00;;;;;;;26.64;100.00;100511.15;1702268;82;20972;-43
2021/07/12 11:26:33;;;;;;;8.05;7.30;;;;;;;26.66;100.00;100504.94;1704910;82;21000;-47
2021/07/12 11:29:18;;;;;;;7.83;7.17;;;;;;;26.69;100.00;100506.78;1705214;82;20984;-45
2021/07/12 11:32:05;;;;;;;8.03;7.22;;;;;;;26.74;100.00;100506.20;1706349;82;20940;-44